Station: Warragul (Nilma North)  

  Atmospheric Gas Attenuation - ITU Rec 676-11   ----------------- dB/100km -----------------
Date Time Temp RH % AH g/m3 Dew Point Wind Direction Speed kph Gust kph Barometer mB Rainfall Since 9am 24GHz 47GHz 76GHz 122GHz 134GHz 241GHz
08/05 12:40 12.6 99 10.95 12.4 22 30 1021.9 3 24.7 30.6 50.9 133.9 133.8 461.9
08/05 12:30 13.2 96 11.02 12.6 19 33 1021.7 3 24.8 30.5 50.8 133.6 133.7 461.8
08/05 12:20 12.9 100 11.27 12.9 17 20 1021.9 3 25.4 31.1 52.1 137.2 137.9 476.5
08/05 12:10 12.5 100 11 12.5 20 26 1022 3 24.8 30.8 51.2 134.6 134.7 465.1
08/05 12:00 13 100 11.34 13 17 28 1022.1 3 25.5 31.2 52.4 137.8 138.8 479.6
08/05 11:50 12.8 100 11.2 12.9 22 30 1022 3 25.2 31.0 51.9 136.5 137.1 473.5
08/05 11:40 12.4 100 10.93 12.5 20 26 1021.9 3 24.7 30.7 50.9 134.0 133.8 462.1
08/05 11:30 13 100 11.34 13 15 30 1022.1 2.8 25.5 31.2 52.4 137.8 138.8 479.6
08/05 11:20 13.1 100 11.41 13.1 17 20 1022 2.6 25.6 31.3 52.6 138.5 139.7 482.5
08/05 11:10 13.1 100 11.41 13.2 19 30 1021.8 2.6 25.6 31.3 52.6 138.5 139.6 482.4
08/05 11:00 12.8 100 11.2 12.8 19 28 1021.6 2.6 25.2 31.0 51.8 136.5 137.1 473.4
08/05 10:50 12.3 100 10.86 12.4 17 22 1021.9 2.6 24.5 30.6 50.7 133.3 133.0 459.1
08/05 10:40 12.5 100 11 12.6 28 32 1021.5 2.4 24.8 30.7 51.1 134.6 134.6 464.9
08/05 10:30 12.9 100 11.27 12.9 22 33 1021.4 2.2 25.4 31.1 52.1 137.1 137.9 476.3
08/05 10:20 12.3 100 10.86 12.4 19 28 1021.4 2.2 24.5 30.6 50.6 133.2 132.9 458.9
08/05 10:10 12 100 10.66 12.1 11 15 1021.6 2.2 24.1 30.3 50.0 131.4 130.5 450.5
08/05 10:00 11.9 100 10.59 11.9 11 19 1021.5 2 24.0 30.2 49.7 130.7 129.7 447.5
08/05 09:50 11.9 100 10.59 12 15 20 1021.6 1.2 24.0 30.2 49.7 130.7 129.7 447.5
08/05 09:40 11.9 100 10.59 12 15 17 1021.5 0.6 24.0 30.2 49.7 130.7 129.7 447.5
08/05 09:30 11.6 100 10.4 11.6 17 30 1021.4 0.6 23.6 30.0 49.0 129.0 127.4 439.5
08/05 09:20 11.8 100 10.53 11.9 22 32 1021.3 0.4 23.8 30.1 49.5 130.2 128.9 444.9
08/05 09:10 11.9 100 10.59 12 20 26 1021 0.2 24.0 30.2 49.7 130.7 129.6 447.3
08/05 09:00 11.7 100 10.46 11.7 22 33 1020.9 0 23.7 30.0 49.2 129.5 128.1 441.8
08/05 08:50 11.7 100 10.46 11.8 22 26 1020.9 23.2 23.7 30.0 49.2 129.5 128.1 441.8
08/05 08:40 11.7 100 10.46 11.8 17 22 1020.7 23 23.7 30.0 49.2 129.4 128.0 441.7
08/05 08:30 11.8 100 10.53 11.8 20 32 1020.8 23 23.8 30.1 49.5 130.1 128.9 444.8
08/05 08:20 11.7 100 10.46 11.8 20 24 1020.6 23 23.7 30.0 49.2 129.4 128.0 441.7
08/05 08:10 11.8 100 10.53 11.9 20 24 1020.4 22.8 23.8 30.1 49.4 130.1 128.9 444.6
08/05 08:00 11.6 100 10.4 11.6 19 35 1020.4 22.8 23.6 29.9 49.0 128.9 127.3 439.1
08/05 07:50 11.6 100 10.4 11.7 17 20 1020.3 22.8 23.6 29.9 49.0 128.8 127.3 439.1
08/05 07:40 11.5 100 10.33 11.6 19 26 1019.8 22.4 23.4 29.8 48.7 128.1 126.4 435.9
08/05 07:30 11.6 100 10.4 11.6 24 33 1019.6 22.2 23.6 29.9 49.0 128.8 127.2 438.9
08/05 07:20 11.5 100 10.33 11.6 26 32 1019.5 22.2 23.4 29.8 48.7 128.1 126.4 435.8
08/05 07:10 11.6 100 10.4 11.7 26 30 1019.4 22.2 23.6 29.9 48.9 128.7 127.2 438.8
08/05 07:00 11.6 100 10.4 11.6 24 39 1019.2 22.2 23.6 29.9 48.9 128.7 127.2 438.7
08/05 06:50 11.7 100 10.46 11.8 22 32 1019 21.8 23.7 29.9 49.1 129.2 127.9 441.1
08/05 06:40 11.7 100 10.46 11.8 26 32 1019.1 21.8 23.7 30.0 49.1 129.2 127.9 441.2
08/05 06:30 11.8 100 10.53 11.8 22 33 1018.9 21.8 23.8 30.0 49.4 129.9 128.7 444.1
08/05 06:20 11.7 100 10.46 11.8 19 22 1018.9 21.8 23.7 29.9 49.1 129.2 127.8 441.1
08/05 06:10 11.8 100 10.53 11.9 22 28 1018.7 21.8 23.8 30.0 49.4 129.8 128.7 444.0
08/05 06:00 11.7 100 10.46 11.7 30 41 1018.5 21.8 23.7 29.9 49.1 129.2 127.8 441.0
08/05 05:50 11.7 100 10.46 11.8 32 37 1018.1 21.6 23.7 29.9 49.1 129.1 127.8 440.8
08/05 05:40 11.7 100 10.46 11.8 28 30 1018.1 21.6 23.7 29.9 49.1 129.1 127.8 440.8
08/05 05:30 11.7 100 10.46 11.7 32 48 1017.9 21.6 23.7 29.9 49.1 129.1 127.7 440.8
08/05 05:20 11.5 100 10.33 11.6 32 37 1017.8 21.6 23.4 29.7 48.6 127.9 126.2 435.3
08/05 05:10 11.6 100 10.4 11.7 32 43 1017.8 21.2 23.6 29.8 48.9 128.5 127.0 438.3
08/05 05:00 11.5 100 10.33 11.5 33 46 1017.7 20.8 23.4 29.7 48.6 127.9 126.2 435.2
08/05 04:50 11.4 100 10.27 11.5 33 39 1017.7 20.4 23.3 29.7 48.4 127.3 125.5 432.7
08/05 04:40 11.4 100 10.27 11.5 32 37 1017.7 20.2 23.3 29.7 48.4 127.3 125.5 432.7
08/05 04:30 11.4 100 10.27 11.4 33 50 1017.7 20.2 23.3 29.7 48.4 127.3 125.5 432.7
08/05 04:20 11.3 100 10.2 11.4 35 48 1017.7 20.2 23.2 29.6 48.2 126.7 124.6 429.7
08/05 04:10 11.4 100 10.27 11.5 30 37 1017.6 19.8 23.3 29.7 48.4 127.3 125.5 432.7
08/05 04:00 11.2 100 10.14 11.2 26 46 1017.7 19.4 23.0 29.5 48.0 126.1 123.9 427.3
08/05 03:50 11.2 100 10.14 11.3 28 35 1017.8 19.4 23.0 29.5 48.0 126.1 123.9 427.3
08/05 03:40 11.2 100 10.14 11.3 22 26 1017.7 18.8 23.0 29.5 48.0 126.1 123.9 427.3
08/05 03:30 11.2 100 10.14 11.2 24 37 1017.7 18.4 23.0 29.5 48.0 126.1 123.9 427.3
08/05 03:20 11.2 100 10.14 11.3 28 35 1017.5 18.2 23.0 29.5 47.9 126.1 123.9 427.2
08/05 03:10 11.2 100 10.14 11.3 26 35 1017.3 17.8 23.0 29.5 47.9 126.1 123.9 427.1
08/05 03:00 11.2 100 10.14 11.2 30 46 1017.5 17.6 23.0 29.5 47.9 126.1 123.9 427.2
08/05 02:50 11.1 100 10.07 11.2 32 39 1017.3 17.6 22.9 29.4 47.7 125.4 123.0 424.1
08/05 02:40 11 100 10.01 11.1 20 28 1017.4 17.2 22.8 29.3 47.5 124.9 122.3 421.7
08/05 02:30 10.9 100 9.95 10.9 28 43 1017.5 17.2 22.6 29.3 47.3 124.3 121.6 419.2
08/05 02:20 10.8 100 9.89 10.9 26 33 1017.5 17.2 22.5 29.2 47.1 123.8 120.9 416.7
08/05 02:10 10.8 100 9.89 10.9 22 33 1017.5 16.8 22.5 29.2 47.1 123.8 120.9 416.7
08/05 02:00 10.7 100 9.82 10.7 26 43 1017.4 16.6 22.4 29.1 46.8 123.1 120.0 413.7
08/05 01:50 10.7 100 9.82 10.8 24 35 1017.4 16.2 22.4 29.1 46.8 123.1 120.0 413.7
08/05 01:40 10.6 100 9.76 10.7 28 33 1017.5 16 22.2 29.0 46.6 122.6 119.3 411.2
08/05 01:30 10.5 100 9.7 10.5 26 44 1017.5 16 22.1 28.9 46.4 122.0 118.6 408.7
08/05 01:20 10.4 100 9.64 10.5 24 35 1017.6 15.8 22.0 28.9 46.2 121.5 117.9 406.3
08/05 01:10 10.4 100 9.64 10.5 32 41 1017.6 15.8 22.0 28.9 46.2 121.5 117.9 406.3
08/05 01:00 10.3 100 9.58 10.3 26 44 1017.8 15.4 21.9 28.8 46.0 121.0 117.2 403.9
08/05 00:50 10 100 9.4 10.1 22 32 1017.9 15.2 21.5 28.6 45.4 119.4 115.1 396.4
08/05 00:40 9.8 100 9.28 9.9 24 30 1017.9 15 21.2 28.5 45.0 118.3 113.7 391.4
08/05 00:30 9.6 100 9.16 9.6 20 30 1018 14.8 21.0 28.3 44.6 117.2 112.3 386.4
08/05 00:20 9.6 100 9.16 9.7 19 24 1018 14.6 21.0 28.3 44.6 117.2 112.3 386.4
08/05 00:10 9.4 100 9.05 9.5 19 26 1018.2 14.2 20.8 28.2 44.3 116.2 111.0 381.9
08/05 00:00 9.3 100 8.99 9.3 17 32 1018.3 14 20.6 28.1 44.1 115.7 110.3 379.5
07/05 23:50 9.3 100 8.99 9.4 15 20 1018.4 13.8 20.6 28.1 44.1 115.7 110.3 379.5
07/05 23:40 9.3 100 8.99 9.4 15 19 1018.6 13.6 20.6 28.1 44.1 115.7 110.3 379.6
07/05 23:30 9.3 100 8.99 9.3 19 30 1018.8 13.6 20.6 28.1 44.1 115.8 110.3 379.6
07/05 23:20 9.2 100 8.93 9.3 19 22 1018.8 13.4 20.5 28.1 43.9 115.2 109.6 377.1
07/05 23:10 9.1 100 8.88 9.2 17 28 1018.9 13.2 20.4 28.0 43.7 114.8 109.1 375.1
07/05 23:00 9.1 100 8.88 9.1 17 28 1019.2 13 20.4 28.0 43.7 114.8 109.1 375.2
07/05 22:50 9 100 8.82 9.1 19 28 1019.3 12.8 20.3 28.0 43.5 114.3 108.4 372.7
07/05 22:40 9 100 8.82 9.1 17 22 1019.3 12.6 20.3 28.0 43.5 114.3 108.4 372.7
07/05 22:30 9 100 8.82 9 17 26 1019.5 12.4 20.3 28.0 43.5 114.3 108.4 372.8
07/05 22:20 8.9 100 8.76 9 20 26 1019.5 12.4 20.2 27.9 43.3 113.8 107.7 370.3
07/05 22:10 8.9 100 8.76 9 19 24 1019.7 12.2 20.2 27.9 43.4 113.8 107.7 370.3
07/05 22:00 8.9 100 8.76 8.9 17 30 1019.8 12 20.2 27.9 43.4 113.8 107.7 370.3
07/05 21:50 8.8 100 8.71 8.9 15 19 1019.8 12 20.1 27.9 43.2 113.4 107.1 368.3
07/05 21:40 8.8 100 8.71 8.9 17 20 1019.8 11.6 20.1 27.9 43.2 113.4 107.1 368.3
07/05 21:30 8.8 100 8.71 8.8 15 24 1019.9 11.6 20.1 27.9 43.2 113.4 107.2 368.4
07/05 21:20 8.8 100 8.71 8.9 17 24 1019.9 11.6 20.1 27.9 43.2 113.4 107.2 368.4
07/05 21:10 8.8 100 8.71 8.9 13 17 1019.8 11.6 20.1 27.9 43.2 113.4 107.1 368.3
07/05 21:00 8.7 100 8.65 8.7 15 28 1019.9 11.6 19.9 27.8 43.0 112.8 106.4 365.8
07/05 20:50 8.6 100 8.6 8.7 17 22 1020 11.6 19.8 27.7 42.8 112.4 105.9 363.8
07/05 20:40 8.6 100 8.6 8.7 11 19 1020.2 11.6 19.8 27.7 42.8 112.4 105.9 363.9
07/05 20:30 8.6 100 8.6 8.6 15 26 1020.4 11.6 19.8 27.7 42.9 112.4 105.9 364.0
07/05 20:20 8.7 100 8.65 8.8 13 20 1020.6 11.4 19.9 27.8 43.0 112.9 106.5 366.0
07/05 20:10 8.7 100 8.65 8.8 17 20 1020.5 11.4 19.9 27.8 43.0 112.9 106.5 366.0

Last Refresh: 08-May-2026 12:09:34

Bureau of Meteorology